Date,TemperatureHighF,TemperatureAvgF,TemperatureLowF,DewpointHighF,DewpointAvgF,DewpointLowF,HumidityHigh,HumidityAvg,HumidityLow,PressureMaxIn,PressureMinIn,WindSpeedMaxMPH,WindSpeedAvgMPH,GustSpeedMaxMPH,PrecipitationSumIn
2013-1-1,29,20,2,26,13,-4,90,74,59,29.90,29.63,11,3,0,0.00
2013-1-2,21,5,-7,13,-2,-15,81,71,60,30.13,29.84,6,2,0,0.00
2013-1-3,14,0,-10,-2,-9,-17,76,64,45,30.14,29.93,4,1,0,0.00
2013-1-4,34,21,-4,24,14,-10,91,77,62,29.92,29.75,7,2,0,0.00
2013-1-5,34,25,11,24,17,6,87,70,50,30.20,29.76,8,2,0,0.00
2013-1-6,34,24,10,27,19,6,92,84,74,30.16,29.88,3,1,0,0.00
2013-1-7,32,22,5,29,16,0,91,76,55,30.35,29.92,4,1,0,0.00
2013-1-8,41,21,2,25,13,-3,86,72,48,30.35,30.20,6,1,0,0.03
2013-1-9,40,27,10,31,20,6,88,77,63,30.36,29.92,7,1,0,0.02
2013-1-10,41,33,25,31,24,20,89,70,56,30.52,29.97,8,3,0,0.02
2013-1-11,36,28,18,30,23,15,94,81,61,30.50,30.13,5,2,0,0.04
2013-1-12,40,35,31,39,34,30,97,95,93,30.14,30.07,5,1,0,0.08
2013-1-13,43,38,33,42,37,32,98,97,95,30.11,29.93,3,1,0,0.00
2013-1-14,50,40,31,50,35,24,98,85,53,30.23,29.81,6,2,0,0.01
2013-1-15,35,29,25,27,23,20,90,77,63,30.29,30.19,3,1,0,0.00
2013-1-16,31,27,25,28,25,22,94,89,80,30.19,29.74,3,0,0,0.00
2013-1-17,36,25,12,30,18,1,94,77,57,30.06,29.74,7,1,0,0.00
2013-1-18,18,9,-3,2,-4,-11,76,56,38,30.31,30.03,7,1,0,0.00
2013-1-19,40,25,10,25,16,4,81,69,51,30.20,29.74,4,1,0,0.05
2013-1-20,42,30,16,34,19,-1,88,66,44,29.83,29.43,14,4,0,0.05
2013-1-21,25,17,7,13,4,-5,84,58,39,29.95,29.71,7,2,0,0.00
2013-1-22,21,11,-2,12,3,-11,85,69,43,29.95,29.68,7,1,0,0.00
2013-1-23,6,-3,-15,-9,-16,-23,71,54,36,30.03,29.93,7,2,0,0.00
2013-1-24,10,-3,-17,-11,-17,-25,68,51,33,30.16,29.98,9,3,0,0.00
2013-1-25,15,6,-6,0,-9,-15,68,51,30,30.22,29.96,6,1,0,0.00
2013-1-26,18,8,1,0,-4,-10,75,58,35,30.13,29.92,6,2,0,0.00
2013-1-27,24,10,1,0,-5,-10,76,52,25,30.40,30.13,8,2,0,0.00
2013-1-28,22,12,-1,16,5,-9,86,73,46,30.39,29.96,3,0,0,0.00
2013-1-29,33,25,18,28,21,14,94,85,73,30.14,29.98,0,0,0,0.00
2013-1-30,49,38,30,49,38,29,98,96,94,30.05,29.35,4,1,0,0.79
2013-1-31,56,38,24,55,30,8,98,76,51,29.46,28.83,10,4,0,1.01
2013-2-1,25,19,12,16,9,2,82,66,51,29.99,29.46,8,3,0,0.00
2013-2-2,21,15,6,13,6,0,84,69,51,30.11,29.95,4,1,0,0.00
2013-2-3,26,19,9,14,11,5,84,71,55,29.96,29.65,6,1,0,0.00
2013-2-4,25,18,10,11,4,-5,78,57,34,29.82,29.63,9,3,0,0.00
2013-2-5,24,14,1,9,2,-5,76,58,38,29.94,29.81,7,1,0,0.00
2013-2-6,32,22,11,21,12,-5,86,66,45,30.24,29.83,6,2,0,0.00
2013-2-7,21,14,4,2,-4,-8,60,46,32,30.47,30.24,5,1,0,0.00
2013-2-8,18,15,13,12,8,-4,87,73,38,30.40,29.76,13,4,0,0.00
2013-2-9,18,11,4,13,7,0,87,81,70,30.19,29.72,5,1,0,0.07
2013-2-10,30,12,-5,24,4,-11,88,70,31,30.36,30.19,3,1,0,0.00
2013-2-11,30,21,3,28,17,-2,95,85,67,30.26,29.55,5,1,0,0.00
2013-2-12,42,34,29,30,27,24,95,77,60,29.80,29.56,10,3,0,0.19
2013-2-13,39,29,22,26,20,17,81,68,50,29.80,29.69,5,1,0,0.02
2013-2-14,37,27,21,26,19,16,84,73,51,29.92,29.67,5,1,0,0.01
2013-2-15,47,32,17,31,22,13,87,69,47,29.91,29.83,10,2,0,0.05
2013-2-16,34,28,18,26,18,4,89,68,52,29.90,29.71,5,1,0,0.00
2013-2-17,18,13,8,4,1,-3,65,57,48,29.70,29.40,12,4,0,0.00
2013-2-18,24,16,5,2,-4,-9,65,44,24,30.05,29.62,9,4,0,0.00
2013-2-19,40,26,7,30,13,-4,93,61,31,30.09,29.52,8,2,0,0.04
2013-2-20,32,25,18,30,19,12,94,79,70,29.68,29.48,6,2,0,0.00
2013-2-21,26,19,13,15,11,6,84,71,55,30.22,29.68,8,3,0,0.00
2013-2-22,40,28,16,24,18,12,86,66,49,30.36,30.23,5,2,0,0.08
2013-2-23,33,29,27,29,24,18,93,82,69,30.23,29.87,5,2,0,0.00
2013-2-24,36,31,27,31,29,25,94,91,81,29.87,29.69,5,1,0,0.07
2013-2-25,36,30,25,31,27,23,94,88,79,30.19,29.86,3,1,0,0.03
2013-2-26,39,33,26,33,29,24,93,85,73,30.29,30.13,6,2,0,0.10
2013-2-27,34,31,29,32,29,25,94,91,80,30.13,29.60,16,6,0,0.04
2013-2-28,43,34,27,37,31,26,94,89,74,29.60,29.51,3,1,0,0.22
2013-3-1,39,32,28,32,27,24,94,83,65,29.66,29.51,6,2,0,0.00
2013-3-2,37,30,24,28,24,20,87,80,64,29.63,29.58,5,2,0,0.00
2013-3-3,35,28,22,27,22,19,87,80,69,29.61,29.53,5,2,0,0.03
2013-3-4,33,26,23,24,20,18,83,78,66,29.77,29.57,8,2,0,0.00
2013-3-5,47,31,23,31,24,18,90,76,53,30.04,29.77,4,1,0,0.00
2013-3-6,34,31,28,30,27,23,93,85,73,30.16,30.04,11,5,0,0.00
2013-3-7,39,31,27,26,24,22,88,75,61,30.13,30.04,11,3,0,0.01
2013-3-8,40,31,26,26,24,19,90,75,55,30.18,29.99,5,2,0,0.09
2013-3-9,53,36,24,28,20,9,81,56,18,30.29,30.16,4,1,0,0.03
2013-3-10,50,35,18,29,24,14,89,67,39,30.33,30.18,7,2,0,0.00
2013-3-11,47,39,31,36,30,28,87,72,49,30.23,30.06,7,2,0,0.00
2013-3-12,47,42,39,47,41,36,98,95,86,30.06,29.66,9,2,0,0.99
2013-3-13,43,37,26,38,30,23,94,77,55,29.76,29.69,6,2,0,0.00
2013-3-14,32,25,15,24,15,5,86,65,49,29.79,29.64,9,3,0,0.00
2013-3-15,36,23,11,26,12,2,89,62,34,29.80,29.53,9,3,0,0.00
2013-3-16,32,25,16,18,13,10,82,62,44,29.82,29.62,5,2,0,0.00
2013-3-17,31,21,13,13,7,-1,78,55,35,30.26,29.82,8,2,0,0.00
2013-3-18,35,21,2,18,0,-8,75,44,15,30.39,30.16,6,2,0,0.00
2013-3-19,30,26,22,26,23,19,91,88,79,30.15,29.67,13,4,0,0.00
2013-3-20,38,27,19,24,19,13,90,74,55,29.70,29.61,8,2,0,0.01
2013-3-21,42,25,6,24,11,2,85,60,32,29.71,29.54,5,1,0,0.09
2013-3-22,41,27,11,22,16,7,84,65,42,29.67,29.57,7,2,0,0.01
2013-3-23,40,30,21,22,19,15,81,64,41,29.73,29.59,10,3,0,0.00
2013-3-24,42,32,24,26,22,18,78,67,50,29.80,29.72,6,2,0,0.00
2013-3-25,41,30,18,28,22,14,87,71,50,29.76,29.52,10,2,0,0.00
2013-3-26,47,36,26,28,23,20,88,61,37,29.76,29.55,5,2,0,0.00
2013-3-27,50,36,20,30,25,16,90,67,42,29.87,29.74,5,1,0,0.00
2013-3-28,48,37,32,36,31,28,93,79,57,30.01,29.86,5,1,0,0.01
2013-3-29,47,39,31,38,32,28,90,76,57,30.03,29.97,4,1,0,0.02
2013-3-30,54,38,26,32,22,12,91,60,21,30.07,29.99,5,1,0,0.00
2013-3-31,53,38,20,35,23,16,92,60,26,30.08,29.73,8,2,0,0.05
2013-4-1,52,36,27,44,30,10,94,79,47,29.72,29.46,10,3,0,0.65
2013-4-2,32,27,22,18,10,6,58,49,39,29.83,29.71,8,3,0,0.01
2013-4-3,41,30,21,13,9,1,59,43,20,30.10,29.82,9,3,0,0.00
2013-4-4,50,36,22,21,13,6,70,42,18,30.23,29.93,7,2,0,0.00
2013-4-5,54,40,30,27,23,17,76,53,27,29.92,29.66,7,3,0,0.00
2013-4-6,40,30,21,18,7,-2,63,41,18,30.28,29.87,8,3,0,0.00
2013-4-7,55,40,22,36,22,9,77,50,27,30.26,29.89,10,3,0,0.00
2013-4-8,58,45,37,37,33,29,91,65,35,30.07,29.91,5,2,0,0.00
2013-4-9,58,46,40,46,40,33,94,80,55,30.02,29.86,7,2,0,0.11
2013-4-10,54,45,40,47,42,37,96,89,73,29.97,29.86,3,1,0,0.69
2013-4-11,43,39,35,40,30,20,95,71,49,30.13,29.86,4,1,0,0.04
2013-4-12,35,30,28,28,25,20,92,81,56,30.15,29.80,12,4,0,0.05
2013-4-13,52,39,30,37,32,28,94,79,49,29.85,29.70,5,1,0,0.32
2013-4-14,52,39,32,36,31,27,94,75,48,30.15,29.83,7,2,0,0.00
2013-4-15,58,42,24,35,30,22,92,65,39,30.29,30.15,6,2,0,0.00
2013-4-16,63,49,36,51,41,30,97,76,53,30.29,29.93,11,4,0,0.05
2013-4-17,60,49,34,51,34,28,97,61,33,30.29,29.96,11,2,0,0.00
2013-4-18,61,46,27,39,31,24,91,57,41,30.36,30.04,9,3,0,0.00
2013-4-19,72,61,50,60,55,40,94,81,62,30.04,29.50,13,4,0,0.18
2013-4-20,57,44,34,55,33,19,93,67,40,30.17,29.56,9,3,0,0.20
2013-4-21,49,38,27,22,17,10,75,46,22,30.62,30.17,7,2,0,0.00
2013-4-22,52,38,24,28,20,14,85,54,27,30.69,30.53,12,4,0,0.00
2013-4-23,38,34,28,35,30,25,91,85,79,30.54,30.11,10,3,0,0.00
2013-4-24,74,56,38,48,41,24,94,63,17,30.10,29.68,7,2,0,0.00
2013-4-25,57,49,33,50,33,21,87,56,28,30.24,29.68,7,3,0,0.00
2013-4-26,59,44,26,37,30,23,89,63,35,30.37,30.24,9,2,0,0.00
2013-4-27,65,48,29,41,28,15,91,54,15,30.38,30.22,5,1,0,0.00
2013-4-28,70,53,30,40,33,26,90,54,25,30.27,30.13,11,2,0,0.00
2013-4-29,71,56,40,42,38,35,82,53,31,30.20,30.11,6,2,0,0.00
2013-4-30,75,60,49,37,31,26,58,35,20,30.30,30.18,6,2,0,0.00
2013-5-1,77,58,36,38,28,14,84,40,10,30.42,30.30,11,2,0,0.00
2013-5-2,85,58,37,45,36,26,88,51,17,30.45,30.27,10,2,0,0.00
2013-5-3,66,52,34,43,37,29,86,59,37,30.49,30.32,8,2,0,0.00
2013-5-4,71,55,36,47,36,24,92,55,18,30.33,30.18,10,3,0,0.00
2013-5-5,74,54,33,38,32,26,87,50,20,30.27,30.14,9,2,0,0.00
2013-5-6,79,58,34,45,33,22,89,49,14,30.20,30.05,6,2,0,0.00
2013-5-7,84,63,40,52,39,25,90,51,14,30.14,29.99,10,2,0,0.00
2013-5-8,73,61,48,62,55,46,95,83,53,30.18,30.01,10,2,0,0.26
2013-5-9,68,60,54,60,57,53,98,89,68,30.01,29.83,6,1,0,0.95
2013-5-10,77,62,50,62,55,50,98,82,47,29.92,29.84,6,1,0,0.01
2013-5-11,64,60,57,62,58,55,98,94,86,29.83,29.63,5,1,0,0.21
2013-5-12,65,55,41,57,44,27,98,70,42,29.72,29.54,5,1,0,0.01
2013-5-13,52,43,38,33,29,26,76,59,43,29.99,29.73,5,2,0,0.00
2013-5-14,56,44,33,36,31,26,90,62,34,30.02,29.91,5,1,0,0.00
2013-5-15,63,45,29,51,37,26,97,76,31,29.99,29.59,7,1,0,0.16
2013-5-16,77,60,43,51,42,32,98,60,21,29.81,29.56,9,2,0,0.00
2013-5-17,67,53,44,43,40,36,81,62,33,30.18,29.82,4,1,0,0.00
2013-5-18,74,56,35,46,38,26,92,59,20,30.27,30.16,4,1,0,0.00
2013-5-19,69,54,41,53,48,39,97,83,53,30.29,30.14,4,1,0,0.25
2013-5-20,77,62,53,64,58,52,98,87,63,30.13,29.92,3,0,0,0.02
2013-5-21,81,60,50,68,57,49,98,90,60,30.03,29.84,7,2,0,0.53
2013-5-22,68,56,49,63,54,48,98,95,83,29.92,29.83,5,2,0,0.66
2013-5-23,73,62,52,69,60,51,98,94,82,29.85,29.71,6,1,0,0.03
2013-5-24,64,55,44,63,54,43,98,95,88,29.85,29.60,4,1,0,0.26
2013-5-25,44,40,33,43,40,32,98,97,94,29.84,29.72,5,3,0,0.63
2013-5-26,54,42,33,44,38,32,98,86,63,30.02,29.69,5,2,0,0.10
2013-5-27,69,51,33,44,38,32,97,66,29,30.15,30.01,6,1,0,0.00
2013-5-28,74,56,35,46,41,33,95,63,32,30.21,30.09,5,1,0,0.00
2013-5-29,59,55,51,58,53,45,98,93,72,30.12,29.95,3,0,0,0.33
2013-5-30,86,70,56,68,62,56,98,80,50,30.06,29.98,4,1,0,0.00
2013-5-31,92,74,57,70,62,57,98,72,37,30.09,29.93,6,1,0,0.00
2013-6-1,94,76,62,69,64,60,98,71,39,29.96,29.83,5,1,0,0.00
2013-6-2,92,72,65,72,67,63,98,86,51,29.84,29.65,5,1,0,1.59
2013-6-3,75,65,54,65,58,48,98,81,51,29.80,29.75,4,1,0,0.00
2013-6-4,68,56,47,48,44,40,81,66,48,30.06,29.79,6,1,0,0.00
2013-6-5,75,58,43,48,44,35,94,63,28,30.16,30.04,4,1,0,0.00
2013-6-6,72,60,48,55,47,41,89,66,44,30.17,30.06,6,1,0,0.00
2013-6-7,51,50,49,50,49,48,97,96,94,30.02,29.93,6,2,0,0.06
2013-6-8,69,62,54,60,58,53,98,87,73,29.98,29.68,2,0,0,0.00
2013-6-9,74,63,53,59,55,52,98,78,53,30.16,29.98,5,1,0,0.00
2013-6-10,71,59,47,60,54,46,98,87,59,30.18,29.97,4,1,0,0.19
2013-6-11,56,54,52,55,54,52,98,98,94,29.97,29.54,5,1,0,0.95
2013-6-12,59,55,51,57,54,50,98,96,91,29.80,29.53,4,1,0,0.08
2013-6-13,65,55,46,58,52,46,98,92,64,29.79,29.68,3,0,0,0.21
2013-6-14,81,62,52,61,54,47,98,78,38,29.79,29.64,3,1,0,0.00
2013-6-15,78,62,49,52,48,43,89,62,28,29.92,29.79,4,1,0,0.00
2013-6-16,72,58,46,60,54,45,98,85,58,29.91,29.69,5,0,0,0.03
2013-6-17,82,63,52,64,58,52,98,87,49,29.89,29.76,4,1,0,0.06
2013-6-18,60,55,50,58,54,50,98,97,95,29.94,29.87,2,0,0,0.00
2013-6-19,80,59,46,54,48,44,98,72,31,30.16,29.94,0,0,0,0.00
2013-6-20,80,60,42,53,46,40,96,65,28,30.26,30.16,0,0,0,0.00
2013-6-21,86,62,48,59,53,46,96,74,36,30.25,30.21,0,0,0,0.00
2013-6-22,84,68,53,68,61,52,97,80,54,30.22,30.10,2,0,0,0.03
2013-6-23,88,71,62,75,67,62,98,90,62,30.14,29.96,3,0,0,0.12
2013-6-24,94,74,65,73,68,64,98,83,49,29.99,29.88,5,1,0,0.00
2013-6-25,90,73,65,72,67,64,98,84,52,29.93,29.72,4,1,0,0.11
2013-6-26,74,67,62,73,66,62,98,98,91,29.84,29.72,2,0,0,0.40
2013-6-27,78,68,63,72,66,63,98,94,77,29.83,29.74,4,1,0,0.00
2013-6-28,72,63,56,70,62,56,98,97,90,29.74,29.47,6,2,0,1.35
2013-6-29,82,71,64,72,66,63,98,86,59,29.68,29.50,5,1,0,0.03
2013-6-30,82,70,63,71,66,63,98,89,65,29.92,29.68,5,1,0,0.78
2013-7-1,77,70,65,72,68,64,98,96,81,30.05,29.92,3,0,0,0.14
2013-7-2,78,69,61,76,68,61,98,97,87,30.19,30.04,6,1,0,1.48
2013-7-3,86,72,61,76,68,60,98,89,64,30.19,30.11,3,1,0,0.10
2013-7-4,89,77,66,77,71,65,98,83,57,30.21,30.08,4,1,0,0.01
2013-7-5,92,78,69,77,72,68,98,84,55,30.17,30.05,4,1,0,0.00
2013-7-6,86,75,68,73,70,66,98,86,57,30.10,30.01,3,0,0,0.01
2013-7-7,88,74,64,74,69,64,98,85,54,30.05,29.93,4,0,0,0.01
2013-7-8,85,72,67,75,70,66,98,94,70,30.06,29.92,3,0,0,0.32
2013-7-9,80,69,64,71,67,63,98,93,76,30.11,30.03,5,1,0,0.00
2013-7-10,76,69,65,74,68,64,98,97,90,30.05,29.78,5,1,0,0.23
2013-7-11,82,72,62,74,68,61,98,88,65,29.98,29.75,3,1,0,0.00
2013-7-12,82,69,58,64,61,57,98,79,50,30.22,29.98,5,1,0,0.00
2013-7-13,78,68,57,70,64,57,98,90,64,30.33,30.23,4,0,0,0.00
2013-7-14,86,74,65,74,70,64,98,87,63,30.33,30.22,3,0,0,0.00
2013-7-15,94,76,65,75,68,64,98,81,47,30.24,30.13,3,1,0,0.00
2013-7-16,90,76,63,73,68,63,98,81,54,30.20,30.15,3,1,0,0.00
2013-7-17,96,78,63,74,69,62,98,77,45,30.20,29.98,4,1,0,0.00
2013-7-18,94,77,69,75,72,68,98,86,51,30.03,29.94,6,1,0,0.52
2013-7-19,92,78,67,78,72,66,98,83,55,29.94,29.69,7,2,0,0.13
2013-7-20,85,73,66,72,68,65,98,85,60,29.80,29.65,8,1,0,0.05
2013-7-21,83,70,60,66,63,59,98,82,54,30.00,29.81,4,0,0,0.00
2013-7-22,74,66,59,70,64,58,98,95,86,30.03,29.89,4,1,0,0.20
2013-7-23,72,66,62,71,65,61,98,98,94,29.88,29.55,3,0,0,1.45
2013-7-24,74,65,53,71,61,48,98,88,71,30.00,29.59,4,1,0,0.00
2013-7-25,71,59,47,60,54,46,98,82,58,30.11,30.00,4,1,0,0.00
2013-7-26,73,63,59,66,61,59,98,93,77,30.08,29.98,3,1,0,0.07
2013-7-27,83,67,53,65,60,52,98,79,46,30.06,29.96,4,1,0,0.00
2013-7-28,79,68,58,69,63,57,98,88,57,30.02,29.94,6,1,0,0.12
2013-7-29,82,69,60,72,65,59,98,87,59,30.06,29.96,3,1,0,0.06
2013-7-30,78,65,54,62,58,53,98,79,49,30.11,30.04,4,1,0,0.00
2013-7-31,83,66,54,65,60,53,98,82,44,30.15,30.02,4,0,0,0.00
2013-8-1,76,64,54,66,61,53,98,92,65,30.04,29.84,5,1,0,0.42
2013-8-2,81,68,59,69,61,57,98,81,46,29.85,29.77,4,1,0,0.01
2013-8-3,80,65,56,63,58,54,98,80,52,29.85,29.77,5,1,0,0.06
2013-8-4,72,62,52,63,56,52,98,84,65,29.90,29.79,4,1,0,0.01
2013-8-5,72,59,50,53,48,38,95,71,29,30.05,29.90,4,1,0,0.00
2013-8-6,77,60,44,56,51,43,98,74,44,30.14,30.05,4,1,0,0.00
2013-8-7,77,64,52,63,57,51,98,79,55,30.18,30.07,5,1,0,0.00
2013-8-8,82,71,63,70,67,61,98,87,66,30.07,29.97,5,1,0,0.00
2013-8-9,72,69,65,71,69,64,98,98,98,29.99,29.75,3,0,0,0.77
2013-8-10,78,67,56,65,60,52,98,79,50,30.03,29.79,4,1,0,0.00
2013-8-11,76,61,47,58,54,47,98,79,50,30.08,29.98,3,1,0,0.00
2013-8-12,79,64,52,61,57,51,98,80,52,30.02,29.91,3,1,0,0.00
2013-8-13,68,62,56,67,61,55,98,98,97,29.91,29.68,2,0,0,0.60
2013-8-14,71,60,52,63,55,50,98,84,61,29.95,29.67,5,2,0,0.00
2013-8-15,74,58,46,56,52,45,98,81,53,30.11,29.95,5,1,0,0.00
2013-8-16,77,60,47,59,54,46,98,81,49,30.19,30.10,4,0,0,0.00
2013-8-17,80,63,50,62,56,49,98,82,51,30.29,30.20,3,0,0,0.00
2013-8-18,78,64,52,64,58,51,98,85,58,30.29,30.08,4,0,0,0.00
2013-8-19,83,66,53,63,59,52,98,82,50,30.08,29.95,3,0,0,0.00
2013-8-20,85,68,54,65,60,54,98,81,46,30.10,30.00,3,1,0,0.00
2013-8-21,88,69,56,68,62,56,98,81,50,30.16,30.01,4,0,0,0.00
2013-8-22,87,71,58,68,64,58,98,81,48,30.02,29.80,4,1,0,0.35
2013-8-23,78,64,54,65,58,51,98,83,52,30.16,29.83,3,1,0,0.00
2013-8-24,79,59,44,55,50,43,98,77,38,30.34,30.16,3,1,0,0.00
2013-8-25,81,62,45,61,54,44,98,79,49,30.39,30.15,4,1,0,0.00
2013-8-26,76,67,59,69,64,58,98,91,75,30.17,29.87,4,1,0,0.15
2013-8-27,83,70,63,72,67,62,98,89,67,29.90,29.84,2,0,0,0.00
2013-8-28,84,70,62,72,66,61,98,90,64,29.99,29.85,9,1,0,0.73
2013-8-29,72,64,61,67,63,60,98,96,81,30.08,29.96,4,1,0,0.01
2013-8-30,85,70,61,69,65,61,98,87,56,30.02,29.81,3,0,0,0.00
2013-8-31,77,70,65,74,69,65,98,97,88,29.83,29.75,3,0,0,0.40
2013-9-1,81,72,66,74,70,65,98,94,75,29.88,29.79,4,0,0,0.00
2013-9-2,75,69,64,74,69,64,98,98,95,29.86,29.71,3,1,0,1.38
2013-9-3,70,64,59,68,63,58,98,96,77,29.81,29.70,3,0,0,0.01
2013-9-4,78,65,56,62,58,56,98,81,52,29.90,29.80,4,1,0,0.00
2013-9-5,67,58,44,60,51,42,98,80,46,30.16,29.85,4,1,0,0.02
2013-9-6,68,51,37,48,44,36,98,78,44,30.25,30.07,5,1,0,0.00
2013-9-7,68,57,45,56,52,44,98,84,55,30.07,29.84,3,0,0,0.03
2013-9-8,62,56,43,58,49,41,98,81,56,30.09,29.76,5,1,0,0.01
2013-9-9,68,52,36,53,45,35,98,81,48,30.23,30.10,5,1,0,0.00
2013-9-10,72,60,50,70,60,49,98,98,93,30.12,30.03,2,0,0,0.20
2013-9-11,90,76,66,78,71,66,98,87,58,30.08,29.93,5,1,0,0.01
2013-9-12,78,68,64,75,67,63,98,97,88,29.93,29.65,5,1,0,0.65
2013-9-13,65,61,53,64,60,53,98,98,98,29.79,29.60,4,1,0,0.40
2013-9-14,59,54,48,54,52,48,98,93,80,30.06,29.78,3,1,0,0.00
2013-9-15,68,53,41,55,49,40,98,87,53,30.16,30.02,5,1,0,0.00
2013-9-16,59,52,41,56,48,36,98,89,68,30.28,29.99,4,1,0,0.06
2013-9-17,65,47,35,47,41,34,98,81,48,30.44,30.28,4,1,0,0.00
2013-9-18,72,51,36,53,45,36,98,82,38,30.33,30.14,3,0,0,0.00
2013-9-19,78,56,40,56,49,40,98,81,37,30.16,30.04,2,0,0,0.00
2013-9-20,78,59,43,60,53,42,98,84,51,30.12,29.98,4,0,0,0.00
2013-9-21,71,60,49,64,57,48,98,89,58,29.99,29.65,7,2,0,0.00
2013-9-22,66,58,45,64,54,43,98,90,69,29.85,29.57,3,1,0,0.61
2013-9-23,56,47,41,44,42,39,97,83,62,30.00,29.85,5,2,0,0.00
2013-9-24,63,50,44,46,43,40,88,77,53,29.99,29.85,4,1,0,0.00
2013-9-25,64,53,44,54,48,43,98,85,68,30.00,29.89,3,1,0,0.00
2013-9-26,67,52,41,52,47,41,98,85,59,30.15,30.00,4,0,0,0.00
2013-9-27,67,53,45,55,50,44,98,90,63,30.29,30.15,3,0,0,0.00
2013-9-28,74,54,42,59,49,41,98,87,50,30.37,30.27,3,0,0,0.00
2013-9-29,71,54,41,58,49,40,98,86,55,30.27,30.10,3,0,0,0.00
2013-9-30,72,53,38,56,47,37,98,84,51,30.12,29.96,4,0,0,0.00
2013-10-1,75,55,40,59,50,40,98,86,56,30.00,29.86,3,0,0,0.00
2013-10-2,77,60,46,63,55,46,98,85,59,29.97,29.83,5,1,0,0.00
2013-10-3,75,59,46,54,52,46,98,78,43,30.10,29.96,4,1,0,0.00
2013-10-4,68,55,42,56,52,41,98,89,63,30.11,30.04,3,0,0,0.00
2013-10-5,65,59,55,56,54,49,98,85,65,30.11,30.04,2,0,0,0.00
2013-10-6,56,50,47,55,48,44,98,93,72,30.21,30.10,5,1,0,0.27
2013-10-7,67,55,49,66,55,49,98,98,92,30.12,29.69,7,2,0,0.31
2013-10-8,62,50,36,49,43,35,98,80,46,30.39,29.90,6,1,0,0.00
2013-10-9,62,44,31,46,38,31,98,82,49,30.49,30.36,5,1,0,0.00
2013-10-10,66,49,33,51,43,32,98,84,38,30.37,30.20,3,0,0,0.00
2013-10-11,72,54,43,53,46,41,98,79,36,30.19,30.12,4,0,0,0.00
2013-10-12,54,48,37,54,47,36,98,98,96,30.38,30.18,5,1,0,0.00
2013-10-13,59,49,40,50,46,40,98,90,70,30.43,30.34,6,1,0,0.00
2013-10-14,67,54,42,55,50,41,98,86,62,30.35,30.20,4,0,0,0.00
2013-10-15,62,57,53,56,54,50,98,90,78,30.26,30.16,5,1,0,0.00
2013-10-16,60,54,50,53,50,48,98,88,75,30.16,29.88,5,1,0,0.00
2013-10-17,72,57,49,58,50,47,98,81,49,29.87,29.68,5,1,0,0.07
2013-10-18,61,52,42,55,48,38,98,86,69,29.86,29.57,8,1,0,0.35
2013-10-19,64,50,36,48,42,35,98,78,52,29.91,29.67,5,1,0,0.00
2013-10-20,58,49,39,47,40,35,98,74,47,29.97,29.62,9,2,0,0.00
2013-10-21,62,47,30,45,40,29,98,77,53,30.08,29.93,5,1,0,0.00
2013-10-22,55,47,36,49,42,33,98,84,72,29.92,29.70,5,1,0,0.00
2013-10-23,52,41,31,36,33,30,97,75,49,29.76,29.56,3,1,0,0.00
2013-10-24,46,39,29,36,32,27,95,77,56,29.84,29.62,6,2,0,0.00
2013-10-25,46,35,27,35,29,24,98,79,52,30.07,29.84,6,1,0,0.00
2013-10-26,46,38,27,36,30,25,95,75,53,30.07,29.78,8,1,0,0.00
2013-10-27,50,40,30,38,32,26,87,73,55,30.00,29.71,7,1,0,0.00
2013-10-28,52,38,28,38,30,20,93,74,58,30.33,30.00,10,2,0,0.00
2013-10-29,45,30,19,27,20,14,92,67,35,30.42,30.32,5,1,0,0.00
2013-10-30,47,34,24,36,28,18,94,78,63,30.33,30.17,4,1,0,0.00
2013-10-31,56,42,28,56,41,26,98,96,92,30.21,29.70,4,1,0,0.31
2013-11-1,70,59,49,70,57,43,98,92,64,29.69,29.35,11,3,0,0.61
2013-11-2,62,48,35,48,42,34,98,83,57,29.78,29.58,5,1,0,0.00
2013-11-3,41,33,25,35,22,15,85,65,46,30.41,29.79,5,2,0,0.00
2013-11-4,39,28,19,20,16,14,85,63,41,30.66,30.41,5,1,0,0.00
2013-11-5,46,32,19,31,25,15,91,77,53,30.67,30.45,7,1,0,0.00
2013-11-6,56,44,30,46,39,28,98,84,67,30.46,29.95,6,2,0,0.00
2013-11-7,53,47,35,53,44,30,98,92,84,29.94,29.68,5,2,0,0.10
2013-11-8,41,33,28,34,27,23,88,78,67,30.01,29.79,7,2,0,0.01
2013-11-9,42,35,29,30,24,21,87,67,48,30.12,29.93,6,1,0,0.00
2013-11-10,45,37,32,41,35,30,98,94,85,29.92,29.66,5,1,0,0.08
2013-11-11,46,38,32,32,29,26,87,73,51,30.04,29.82,6,2,0,0.00
2013-11-12,40,28,22,35,21,14,93,75,62,30.14,29.81,7,2,0,0.00
2013-11-13,31,24,17,19,14,10,77,65,47,30.24,30.04,7,2,0,0.00
2013-11-14,45,33,24,29,23,18,89,68,53,30.05,29.98,6,1,0,0.00
2013-11-15,53,34,23,33,24,20,92,71,28,30.16,30.05,7,0,0,0.00
2013-11-16,58,38,27,35,28,25,92,72,32,30.29,30.15,4,1,0,0.00
2013-11-17,47,38,26,46,37,24,98,95,82,30.28,29.80,6,2,0,0.10
2013-11-18,58,49,41,53,44,32,98,83,55,29.79,29.45,7,3,0,0.40
2013-11-19,41,32,26,31,21,15,78,64,54,30.27,29.61,12,4,0,0.00
2013-11-20,36,26,18,20,16,14,87,66,44,30.60,30.27,4,1,0,0.00
2013-11-21,42,28,13,24,15,4,88,64,21,30.61,30.31,5,1,0,0.00
2013-11-22,40,35,31,39,33,24,98,94,75,30.32,29.73,3,0,0,0.11
2013-11-23,42,31,20,41,26,15,98,81,53,29.85,29.67,9,3,0,0.02
2013-11-24,21,16,11,16,4,-5,83,61,46,30.11,29.70,10,4,0,0.01
2013-11-25,27,18,7,14,3,-6,68,52,33,30.30,30.12,5,2,0,0.00
2013-11-26,35,28,24,29,24,13,96,83,62,30.23,30.01,5,1,0,0.00
2013-11-27,46,37,30,45,37,29,98,98,96,30.00,29.26,8,2,0,1.41
2013-11-28,30,22,11,28,13,5,95,71,51,30.35,29.40,11,2,0,0.00
2013-11-29,26,14,5,13,6,0,87,72,49,30.66,30.35,5,1,0,0.00
2013-11-30,26,15,0,15,7,-4,82,69,47,30.71,30.32,6,1,0,0.00
2013-12-1,40,31,24,32,27,16,94,85,69,30.31,29.98,3,0,0,0.00
2013-12-2,41,34,31,37,32,29,98,94,86,29.99,29.86,2,0,0,0.00
2013-12-3,40,32,28,36,31,28,98,95,81,29.92,29.84,3,0,0,0.00
2013-12-4,41,30,24,30,25,21,97,82,63,30.15,29.91,4,1,0,0.00
2013-12-5,38,33,23,38,32,22,98,94,80,30.16,29.86,6,1,0,0.03
2013-12-6,44,38,30,44,36,28,98,92,80,30.11,29.83,4,1,0,0.22
2013-12-7,36,28,23,29,22,16,97,78,58,30.38,30.05,8,1,0,0.00
2013-12-8,26,22,18,16,14,12,83,70,58,30.52,30.38,3,1,0,0.00
2013-12-9,28,25,20,27,21,11,98,87,62,30.42,29.81,6,2,0,0.00
2013-12-10,33,26,18,28,20,9,98,79,63,29.87,29.72,11,2,0,0.00
2013-12-11,28,21,16,17,12,8,87,70,52,30.07,29.87,5,2,0,0.00
2013-12-12,20,11,4,13,2,-3,85,68,44,30.19,29.92,7,1,0,0.00
2013-12-13,22,11,-3,14,4,-9,84,75,68,30.30,29.83,5,1,0,0.00
2013-12-14,10,3,-6,5,-5,-11,85,68,49,30.49,30.11,7,2,0,0.00
2013-12-15,25,18,9,22,15,5,92,88,83,30.08,29.39,9,3,0,0.00
2013-12-16,22,14,-3,16,7,-10,91,72,56,30.11,29.61,8,2,0,0.00
2013-12-17,11,1,-16,6,-5,-22,84,75,59,30.17,29.93,4,1,0,0.00
2013-12-18,32,18,6,21,13,3,93,82,63,29.95,29.84,4,0,0,0.00
2013-12-19,38,28,21,29,23,19,92,82,60,30.03,29.87,5,1,0,0.00
2013-12-20,42,34,31,35,32,28,98,90,74,30.04,29.86,2,0,0,0.39
2013-12-21,49,39,34,47,38,34,98,98,91,29.88,29.80,2,0,0,0.18
2013-12-22,40,35,32,40,35,32,98,98,98,29.96,29.69,6,2,0,0.07
2013-12-23,36,33,31,35,32,30,98,98,97,30.08,29.93,3,1,0,0.30
2013-12-24,30,24,13,29,17,8,95,78,60,30.15,30.00,6,2,0,0.00
2013-12-25,17,9,1,7,0,-5,81,67,53,30.43,30.16,5,1,0,0.00
2013-12-26,26,19,13,23,15,4,94,83,65,30.38,30.03,6,1,0,0.00
2013-12-27,32,23,15,22,18,13,95,82,61,30.14,30.07,7,1,0,0.00
2013-12-28,38,30,19,32,26,17,96,85,73,30.07,29.89,4,1,0,0.07
2013-12-29,38,31,26,33,29,25,98,92,81,29.93,29.49,3,0,0,0.01
2013-12-30,30,12,0,22,7,-5,81,78,72,30.09,29.85,2,0,0,0.07
2013-12-31,16,5,-7,11,-1,-12,90,75,58,30.07,29.89,3,0,0,0.00
2014-1-1,21,12,6,9,4,1,82,72,56,30.29,30.00,6,2,0,0.00
2014-1-2,9,3,-2,2,-3,-7,80,78,73,30.28,29.83,3,0,0,0.00